createdAt,value
2022-08-01T00:04:46.317Z,100.00
2022-08-01T00:09:36.016Z,100.00
2022-08-01T00:14:32.136Z,100.00
2022-08-01T00:19:25.130Z,100.00
2022-08-01T00:24:15.419Z,100.00
2022-08-01T00:29:11.573Z,100.00
2022-08-01T00:34:16.027Z,100.00
2022-08-01T00:39:08.216Z,100.00
2022-08-01T00:43:58.121Z,100.00
2022-08-01T00:48:48.056Z,100.00
2022-08-01T00:53:50.765Z,100.00
2022-08-01T00:58:44.828Z,100.00
2022-08-01T01:03:57.494Z,100.00
2022-08-01T01:08:50.958Z,100.00
2022-08-01T01:13:50.094Z,100.00
2022-08-01T01:18:47.696Z,100.00
2022-08-01T01:23:57.775Z,100.00
2022-08-01T01:29:04.990Z,100.00
2022-08-01T01:33:56.834Z,100.00
2022-08-01T01:38:50.764Z,100.00
2022-08-01T01:43:41.587Z,100.00
2022-08-01T01:48:35.681Z,100.00
2022-08-01T01:53:26.559Z,100.00
2022-08-01T01:58:18.079Z,100.00
2022-08-01T02:03:11.347Z,100.00
2022-08-01T02:08:06.209Z,100.00
2022-08-01T02:12:57.121Z,100.00
2022-08-01T02:17:51.078Z,100.00
2022-08-01T02:22:46.231Z,100.00
2022-08-01T02:27:44.268Z,100.00
2022-08-01T02:32:38.484Z,100.00
2022-08-01T02:37:30.574Z,100.00
2022-08-01T02:42:22.684Z,100.00
2022-08-01T02:47:14.912Z,100.00
2022-08-01T02:52:08.221Z,100.00
2022-08-01T02:57:01.424Z,100.00
2022-08-01T03:01:55.206Z,100.00
2022-08-01T03:06:49.617Z,100.00
2022-08-01T03:11:42.203Z,100.00
2022-08-01T03:16:33.684Z,100.00
2022-08-01T03:21:25.671Z,100.00
2022-08-01T03:26:18.330Z,100.00
2022-08-01T03:31:08.973Z,100.00
2022-08-01T03:35:59.516Z,100.00
2022-08-01T03:40:53.555Z,100.00
2022-08-01T03:45:50.415Z,100.00
2022-08-01T03:50:43.300Z,100.00
2022-08-01T03:55:34.167Z,100.00
2022-08-01T04:00:24.364Z,100.00
2022-08-01T04:05:17.175Z,100.00
2022-08-01T04:10:07.973Z,100.00
2022-08-01T04:14:57.757Z,100.00
2022-08-01T04:19:48.686Z,100.00
2022-08-01T04:24:41.071Z,100.00
2022-08-01T04:29:33.777Z,100.00
2022-08-01T04:34:26.816Z,100.00
2022-08-01T04:39:18.059Z,100.00
2022-08-01T04:44:12.880Z,100.00
2022-08-01T04:49:03.678Z,100.00
2022-08-01T04:53:58.168Z,100.00
2022-08-01T04:58:48.609Z,100.00
2022-08-01T05:03:45.122Z,100.00
2022-08-01T05:08:34.920Z,100.00
2022-08-01T05:13:28.428Z,100.00
2022-08-01T05:18:18.291Z,100.00
2022-08-01T05:23:42.456Z,100.00
2022-08-01T05:28:35.782Z,100.00
2022-08-01T05:33:26.752Z,100.00
2022-08-01T05:38:16.414Z,100.00
2022-08-01T05:43:08.921Z,100.00
2022-08-01T05:47:58.527Z,100.00
2022-08-01T05:52:48.234Z,100.00
2022-08-01T05:57:39.172Z,100.00
2022-08-01T06:02:33.285Z,100.00
2022-08-01T06:07:23.075Z,100.00
2022-08-01T06:12:12.953Z,100.00
2022-08-01T06:17:02.576Z,100.00
2022-08-01T06:21:54.771Z,100.00
2022-08-01T06:26:44.468Z,100.00
2022-08-01T06:31:34.988Z,100.00
2022-08-01T06:36:24.653Z,100.00
2022-08-01T06:41:16.842Z,100.00
2022-08-01T06:46:06.537Z,100.00
2022-08-01T06:51:09.192Z,100.00
2022-08-01T06:55:58.946Z,100.00
2022-08-01T07:00:55.933Z,100.00
2022-08-01T07:05:47.214Z,100.00
2022-08-01T07:10:36.942Z,100.00
2022-08-01T07:15:27.690Z,100.00
2022-08-01T07:20:20.083Z,100.00
2022-08-01T07:25:11.546Z,100.00
2022-08-01T07:30:01.411Z,100.00
2022-08-01T07:34:51.080Z,100.00
2022-08-01T07:39:43.246Z,100.00
2022-08-01T07:44:32.936Z,100.00
2022-08-01T07:49:22.876Z,100.00
2022-08-01T07:54:12.620Z,100.00
2022-08-01T07:59:05.192Z,100.00
2022-08-01T08:03:54.912Z,100.00
2022-08-01T08:08:47.065Z,100.00
2022-08-01T08:13:36.773Z,100.00
2022-08-01T08:18:29.064Z,100.00
2022-08-01T08:23:42.519Z,100.00
2022-08-01T08:28:33.339Z,100.00
2022-08-01T08:33:23.003Z,100.00
2022-08-01T08:38:18.139Z,100.00
2022-08-01T08:43:09.413Z,100.00
2022-08-01T08:48:00.545Z,100.00
2022-08-01T08:52:50.809Z,100.00
2022-08-01T08:57:44.675Z,100.00
2022-08-01T09:02:34.367Z,100.00
2022-08-01T09:07:26.518Z,100.00
2022-08-01T09:12:20.522Z,100.00
2022-08-01T09:17:14.084Z,100.00
2022-08-01T09:22:07.211Z,100.00
2022-08-01T09:26:57.599Z,100.00
2022-08-01T09:31:48.551Z,100.00
2022-08-01T09:37:05.699Z,100.00
2022-08-01T09:41:59.228Z,100.00
2022-08-01T09:46:56.490Z,100.00
2022-08-01T09:51:59.157Z,100.00
2022-08-01T09:56:53.001Z,100.00
2022-08-01T10:01:50.651Z,100.00
2022-08-01T10:06:40.976Z,100.00
2022-08-01T10:11:36.226Z,100.00
2022-08-01T10:16:30.851Z,99.32
2022-08-01T10:21:56.202Z,95.42
2022-08-01T10:26:35.865Z,93.03
2022-08-01T10:31:34.490Z,92.15
2022-08-01T10:36:25.987Z,94.31
2022-08-01T10:41:18.338Z,90.93
2022-08-01T10:46:09.492Z,90.96
2022-08-01T10:51:17.768Z,91.86
2022-08-01T10:56:13.160Z,87.49
2022-08-01T11:01:37.394Z,87.98
2022-08-01T11:06:44.487Z,84.06
2022-08-01T11:11:37.255Z,85.02
2022-08-01T11:16:32.372Z,84.92
2022-08-01T11:21:58.590Z,83.78
2022-08-01T11:26:37.391Z,83.54
2022-08-01T11:31:37.207Z,81.60
2022-08-01T11:36:55.974Z,81.10
2022-08-01T11:41:41.642Z,77.61
2022-08-01T11:47:01.240Z,76.75
2022-08-01T11:51:50.909Z,76.48
2022-08-01T11:56:46.470Z,76.40
2022-08-01T12:01:38.289Z,75.33
2022-08-01T12:06:31.567Z,74.54
2022-08-01T12:11:22.128Z,74.18
2022-08-01T12:16:16.295Z,74.63
2022-08-01T12:21:07.996Z,73.01
2022-08-01T12:25:57.845Z,73.14
2022-08-01T12:30:51.365Z,72.61
2022-08-01T12:35:45.956Z,72.67
2022-08-01T12:40:40.833Z,72.35
2022-08-01T12:45:37.786Z,70.44
2022-08-01T12:50:31.567Z,71.71
2022-08-01T12:55:34.154Z,71.13
2022-08-01T13:00:26.424Z,70.36
2022-08-01T13:05:17.248Z,70.09
2022-08-01T13:10:08.643Z,67.93
2022-08-01T13:15:01.186Z,68.28
2022-08-01T13:19:56.250Z,66.70
2022-08-01T13:24:50.535Z,67.22
2022-08-01T13:29:42.682Z,66.69
2022-08-01T13:34:38.990Z,64.79
2022-08-01T13:39:41.126Z,66.54
2022-08-01T13:44:30.789Z,66.07
2022-08-01T13:49:23.315Z,65.61
2022-08-01T13:54:15.680Z,67.55
2022-08-01T13:59:05.369Z,64.93
2022-08-01T14:03:55.583Z,63.99
2022-08-01T14:08:46.102Z,64.16
2022-08-01T14:13:46.749Z,62.85
2022-08-01T14:18:36.961Z,62.97
2022-08-01T14:23:27.810Z,61.38
2022-08-01T14:28:17.843Z,61.00
2022-08-01T14:33:11.909Z,61.96
2022-08-01T14:38:01.503Z,62.04
2022-08-01T14:42:51.189Z,60.63
2022-08-01T14:47:41.773Z,59.69
2022-08-01T14:52:34.675Z,59.07
2022-08-01T14:57:24.557Z,58.54
2022-08-01T15:02:17.937Z,58.08
2022-08-01T15:07:07.682Z,56.26
2022-08-01T15:12:11.453Z,52.71
2022-08-01T15:17:01.185Z,53.39
2022-08-01T15:21:50.815Z,55.92
2022-08-01T15:26:40.661Z,55.05
2022-08-01T15:31:32.894Z,54.87
2022-08-01T15:36:25.710Z,54.87
2022-08-01T15:41:16.539Z,55.39
2022-08-01T15:46:08.063Z,56.07
2022-08-01T15:51:02.106Z,56.82
2022-08-01T15:56:01.998Z,56.79
2022-08-01T16:00:51.781Z,55.39
2022-08-01T16:05:44.110Z,55.62
2022-08-01T16:10:37.288Z,54.58
2022-08-01T16:15:31.283Z,56.53
2022-08-01T16:20:26.733Z,57.47
2022-08-01T16:25:17.635Z,57.79
2022-08-01T16:30:11.404Z,57.76
2022-08-01T16:35:01.248Z,56.00
2022-08-01T16:39:51.425Z,57.80
2022-08-01T16:44:41.576Z,57.93
2022-08-01T16:49:34.366Z,57.54
2022-08-01T16:54:26.010Z,57.29
2022-08-01T16:59:16.319Z,56.97
2022-08-01T17:04:06.028Z,57.81
2022-08-01T17:08:58.566Z,56.99
2022-08-01T17:13:48.960Z,56.88
2022-08-01T17:18:39.092Z,56.37
2022-08-01T17:23:28.830Z,56.78
2022-08-01T17:28:23.129Z,56.19
2022-08-01T17:33:12.999Z,55.68
2022-08-01T17:38:05.818Z,56.30
2022-08-01T17:42:57.754Z,52.78
2022-08-01T17:47:51.143Z,52.77
2022-08-01T17:52:46.999Z,52.84
2022-08-01T17:57:39.532Z,53.78
2022-08-01T18:02:31.857Z,53.42
2022-08-01T18:08:00.404Z,52.83
2022-08-01T18:12:35.656Z,52.28
2022-08-01T18:17:27.122Z,52.77
2022-08-01T18:22:32.911Z,52.31
2022-08-01T18:28:22.676Z,52.96
2022-08-01T18:32:38.520Z,53.30
2022-08-01T18:37:29.339Z,53.47
2022-08-01T18:42:29.469Z,54.44
2022-08-01T18:47:19.353Z,55.22
2022-08-01T18:52:09.010Z,55.23
2022-08-01T18:56:58.827Z,55.63
2022-08-01T19:01:51.813Z,56.04
2022-08-01T19:06:42.272Z,56.56
2022-08-01T19:11:36.728Z,57.01
2022-08-01T19:16:35.202Z,54.78
2022-08-01T19:21:44.934Z,55.14
2022-08-01T19:26:40.756Z,54.96
2022-08-01T19:31:37.405Z,54.87
2022-08-01T19:36:31.629Z,56.09
2022-08-01T19:41:26.485Z,55.60
2022-08-01T19:46:18.485Z,56.18
2022-08-01T19:51:09.953Z,57.54
2022-08-01T19:56:09.051Z,57.58
2022-08-01T20:01:03.295Z,58.02
2022-08-01T20:05:56.401Z,57.22
2022-08-01T20:10:54.952Z,57.75
2022-08-01T20:15:59.223Z,58.35
2022-08-01T20:20:51.605Z,60.19
2022-08-01T20:25:43.678Z,60.48
2022-08-01T20:30:35.433Z,60.92
2022-08-01T20:35:52.111Z,61.14
2022-08-01T20:40:38.950Z,62.29
2022-08-01T20:45:31.346Z,63.18
2022-08-01T20:50:54.174Z,63.50
2022-08-01T20:55:57.265Z,62.10
2022-08-01T21:00:57.116Z,62.08
2022-08-01T21:05:55.898Z,62.16
2022-08-01T21:10:58.384Z,63.64
2022-08-01T21:16:07.475Z,63.99
2022-08-01T21:21:07.753Z,64.78
2022-08-01T21:26:03.562Z,64.56
2022-08-01T21:30:59.580Z,64.69
2022-08-01T21:35:52.399Z,64.24
2022-08-01T21:40:42.166Z,65.81
2022-08-01T21:45:34.475Z,66.65
2022-08-01T21:50:24.909Z,66.90
2022-08-01T21:55:35.236Z,67.32
2022-08-01T22:00:26.390Z,68.08
2022-08-01T22:05:19.859Z,67.40
2022-08-01T22:10:16.539Z,67.68
2022-08-01T22:15:08.419Z,66.45
2022-08-01T22:19:58.764Z,66.46
2022-08-01T22:24:53.332Z,66.97
2022-08-01T22:29:43.249Z,67.96
2022-08-01T22:34:33.845Z,68.07
2022-08-01T22:39:24.447Z,68.04
2022-08-01T22:44:17.954Z,68.53
2022-08-01T22:49:28.458Z,68.12
2022-08-01T22:54:23.528Z,68.17
2022-08-01T22:59:19.164Z,68.57
2022-08-01T23:04:14.900Z,68.54
2022-08-01T23:09:06.156Z,69.00
2022-08-01T23:13:56.518Z,68.60
2022-08-01T23:18:49.496Z,68.40
2022-08-01T23:23:40.803Z,68.62
2022-08-01T23:28:31.204Z,68.52
2022-08-01T23:33:20.914Z,69.15
2022-08-01T23:38:15.847Z,69.04
2022-08-01T23:43:14.621Z,69.00
2022-08-01T23:48:08.513Z,68.89
2022-08-01T23:52:58.316Z,69.47
2022-08-01T23:57:51.784Z,69.44
